Time;durP1;ratioP1;P1;durP2;ratioP2;P2;SDS_P1;SDS_P2;PMS_P1;PMS_P2;Temp;Humidity;BMP_temperature;BMP_pressure;BME280_temperature;BME280_humidity;BME280_pressure;Samples;Min_cycle;Max_cycle;Signal;HPM_P1;HPM_P2
2024/01/29 00:01:33;;;;;;;1.48;0.73;;;5.20;99.90;;;;;;4982422;28;20049;-73
2024/01/29 00:03:58;;;;;;;0.30;0.28;;;5.20;99.90;;;;;;4980699;28;20495;-74
2024/01/29 00:06:24;;;;;;;2.70;0.88;;;5.20;99.90;;;;;;4944144;28;20046;-74
2024/01/29 00:08:52;;;;;;;1.52;0.77;;;5.20;99.90;;;;;;4958898;28;20438;-74
2024/01/29 00:11:18;;;;;;;2.33;0.55;;;5.20;99.90;;;;;;4967345;28;20050;-74
2024/01/29 00:13:46;;;;;;;0.45;0.30;;;5.10;99.90;;;;;;4985384;28;20039;-74
2024/01/29 00:16:12;;;;;;;1.70;0.60;;;5.10;99.90;;;;;;4988819;28;20061;-71
2024/01/29 00:18:38;;;;;;;1.63;0.75;;;5.10;99.90;;;;;;4982873;28;20042;-72
2024/01/29 00:21:04;;;;;;;1.35;0.60;;;5.20;99.90;;;;;;4991048;28;20053;-72
2024/01/29 00:23:30;;;;;;;0.50;0.20;;;5.10;99.90;;;;;;4970763;28;20577;-72
2024/01/29 00:25:56;;;;;;;1.67;0.80;;;5.10;99.90;;;;;;4983108;28;20173;-72
2024/01/29 00:28:22;;;;;;;0.55;0.32;;;5.20;99.90;;;;;;4971592;28;20113;-72
2024/01/29 00:30:48;;;;;;;2.15;1.13;;;5.00;99.90;;;;;;4972953;28;20043;-73
2024/01/29 00:33:13;;;;;;;0.28;0.20;;;5.00;99.90;;;;;;4987468;28;20062;-73
2024/01/29 00:35:39;;;;;;;0.73;0.68;;;5.10;99.90;;;;;;4981623;28;20039;-72
2024/01/29 00:38:05;;;;;;;0.82;0.45;;;5.00;99.90;;;;;;4977432;28;20034;-72
2024/01/29 00:40:32;;;;;;;1.75;0.73;;;4.80;99.90;;;;;;4984167;28;20030;-73
2024/01/29 00:42:59;;;;;;;1.00;0.50;;;4.90;99.90;;;;;;4986154;28;20038;-73
2024/01/29 00:45:25;;;;;;;1.50;0.63;;;4.80;99.90;;;;;;4984670;28;20537;-72
2024/01/29 00:47:50;;;;;;;0.95;0.68;;;4.80;99.90;;;;;;4971143;28;20125;-73
2024/01/29 00:50:16;;;;;;;0.95;0.57;;;4.80;99.90;;;;;;4981343;28;20129;-72
2024/01/29 00:52:42;;;;;;;1.02;0.93;;;4.80;99.90;;;;;;4985925;28;20038;-73
2024/01/29 00:55:08;;;;;;;0.68;0.30;;;4.70;99.90;;;;;;4987383;28;20039;-73
2024/01/29 00:57:33;;;;;;;0.47;0.38;;;4.70;99.90;;;;;;4988003;28;20126;-73
2024/01/29 00:59:59;;;;;;;1.00;0.47;;;4.70;99.90;;;;;;4957757;28;20069;-73
2024/01/29 01:02:25;;;;;;;1.20;0.70;;;4.70;99.90;;;;;;4987064;28;20054;-74
2024/01/29 01:04:50;;;;;;;0.98;0.70;;;4.70;99.90;;;;;;4976176;28;20034;-73
2024/01/29 01:07:16;;;;;;;7.78;1.20;;;4.70;99.90;;;;;;4988743;28;20113;-73
2024/01/29 01:09:42;;;;;;;0.55;0.20;;;4.80;99.90;;;;;;4982459;28;20050;-73
2024/01/29 01:12:07;;;;;;;7.32;0.95;;;4.70;99.90;;;;;;4984641;28;20046;-73
2024/01/29 01:14:33;;;;;;;1.52;0.60;;;4.70;99.90;;;;;;4965812;28;20046;-73
2024/01/29 01:16:59;;;;;;;1.90;0.90;;;4.70;99.90;;;;;;4983989;28;20042;-73
2024/01/29 01:19:24;;;;;;;2.05;0.30;;;4.70;99.90;;;;;;4982215;28;20043;-73
2024/01/29 01:21:50;;;;;;;1.27;0.60;;;4.60;99.90;;;;;;4983896;28;20030;-74
2024/01/29 01:24:16;;;;;;;0.52;0.47;;;4.60;99.90;;;;;;4987000;28;20450;-73
2024/01/29 01:26:42;;;;;;;1.13;0.40;;;4.50;99.90;;;;;;5000049;28;20051;-73
2024/01/29 01:29:08;;;;;;;0.75;0.55;;;4.50;99.90;;;;;;4982239;28;20070;-72
2024/01/29 01:31:33;;;;;;;0.98;0.30;;;4.50;99.90;;;;;;4981531;28;20076;-74
2024/01/29 01:33:59;;;;;;;3.15;0.50;;;4.40;99.90;;;;;;4985456;28;20133;-73
2024/01/29 01:36:25;;;;;;;0.93;0.50;;;4.50;99.90;;;;;;4973826;28;20492;-73
2024/01/29 01:38:51;;;;;;;0.98;0.65;;;4.40;99.90;;;;;;4982691;28;20467;-73
2024/01/29 01:41:17;;;;;;;0.73;0.40;;;4.50;99.90;;;;;;4981648;28;20041;-72
2024/01/29 01:43:42;;;;;;;0.82;0.68;;;4.60;99.90;;;;;;4965768;28;20043;-73
2024/01/29 01:46:21;;;;;;;0.80;0.57;;;4.60;99.90;;;;;;4987165;28;20070;-73
2024/01/29 01:48:47;;;;;;;0.73;0.45;;;4.60;99.90;;;;;;4981786;28;20363;-72
2024/01/29 01:51:13;;;;;;;0.93;0.43;;;4.60;99.90;;;;;;4973789;28;20038;-73
2024/01/29 01:53:39;;;;;;;1.02;0.65;;;4.60;99.90;;;;;;4969038;28;20359;-73
2024/01/29 01:56:06;;;;;;;5.05;0.73;;;4.60;99.90;;;;;;4987615;28;20069;-72
2024/01/29 01:58:35;;;;;;;0.88;0.70;;;4.50;99.90;;;;;;4986575;28;20559;-73
2024/01/29 02:01:01;;;;;;;1.05;0.73;;;4.60;99.90;;;;;;4984611;28;20124;-73
2024/01/29 02:03:27;;;;;;;3.67;0.40;;;4.60;99.90;;;;;;4961535;28;20129;-73
2024/01/29 02:05:53;;;;;;;0.65;0.45;;;4.50;99.90;;;;;;4964915;28;20053;-73
2024/01/29 02:08:19;;;;;;;2.45;0.50;;;4.50;99.90;;;;;;4983781;28;20409;-73
2024/01/29 02:10:45;;;;;;;0.55;0.32;;;4.50;99.90;;;;;;4958101;28;20058;-73
2024/01/29 02:13:14;;;;;;;0.28;0.28;;;4.60;99.90;;;;;;4984904;28;20046;-73
2024/01/29 02:15:41;;;;;;;1.30;0.70;;;4.60;99.90;;;;;;4987088;28;20038;-73
2024/01/29 02:18:07;;;;;;;1.55;0.35;;;4.60;99.90;;;;;;4959785;28;20038;-72
2024/01/29 02:20:36;;;;;;;2.97;1.30;;;4.60;99.90;;;;;;4958224;28;20112;-73
2024/01/29 02:23:03;;;;;;;0.40;0.30;;;4.60;99.90;;;;;;4988145;28;20123;-73
2024/01/29 02:25:29;;;;;;;0.77;0.77;;;4.60;99.90;;;;;;4981784;28;20457;-73
2024/01/29 02:27:54;;;;;;;1.65;0.55;;;4.50;99.90;;;;;;4973812;28;20046;-73
2024/01/29 02:30:20;;;;;;;0.90;0.50;;;4.60;99.90;;;;;;4972180;28;20041;-73
2024/01/29 02:32:46;;;;;;;1.45;0.55;;;4.60;99.90;;;;;;4983910;28;20081;-72
2024/01/29 02:35:12;;;;;;;4.47;1.00;;;4.60;99.90;;;;;;4965558;28;20100;-73
2024/01/29 02:37:37;;;;;;;0.40;0.40;;;4.50;99.90;;;;;;4958430;28;20073;-73
2024/01/29 02:40:07;;;;;;;1.25;0.55;;;4.60;99.90;;;;;;4969673;28;20130;-73
2024/01/29 02:42:33;;;;;;;1.33;0.77;;;4.50;99.90;;;;;;4962994;28;20382;-74
2024/01/29 02:44:59;;;;;;;1.85;0.70;;;4.50;99.90;;;;;;4974653;28;20034;-73
2024/01/29 02:47:25;;;;;;;1.35;0.80;;;4.50;99.90;;;;;;4985996;28;20042;-73
2024/01/29 02:49:50;;;;;;;0.30;0.30;;;4.40;99.90;;;;;;4974020;28;20129;-73
2024/01/29 02:52:22;;;;;;;1.17;0.63;;;4.40;99.90;;;;;;4994548;28;1284289;-72
2024/01/29 02:54:48;;;;;;;1.30;0.60;;;4.40;99.90;;;;;;5033903;28;20085;-71
2024/01/29 02:57:14;;;;;;;0.32;0.30;;;4.50;99.90;;;;;;5033271;28;20059;-72
2024/01/29 02:59:40;;;;;;;0.30;0.30;;;4.50;99.90;;;;;;5041222;28;20110;-72
2024/01/29 03:02:07;;;;;;;1.10;0.50;;;4.40;99.90;;;;;;5032775;28;20483;-72
2024/01/29 03:04:32;;;;;;;0.85;0.50;;;4.30;99.90;;;;;;5026030;28;20699;-72
2024/01/29 03:06:58;;;;;;;0.52;0.50;;;4.40;99.90;;;;;;5034991;28;20037;-73
2024/01/29 03:09:24;;;;;;;1.52;0.52;;;4.30;99.90;;;;;;5035972;28;20038;-73
2024/01/29 03:11:50;;;;;;;1.17;0.65;;;4.30;99.90;;;;;;5031356;28;20073;-73
2024/01/29 03:14:15;;;;;;;0.93;0.82;;;4.30;99.90;;;;;;5033226;28;20042;-73
2024/01/29 03:16:41;;;;;;;0.77;0.32;;;4.30;99.90;;;;;;5036389;28;20504;-73
2024/01/29 03:19:07;;;;;;;0.70;0.43;;;4.20;99.90;;;;;;5033750;28;20040;-72
2024/01/29 03:21:33;;;;;;;1.10;0.70;;;4.20;99.90;;;;;;5018600;28;20048;-73
2024/01/29 03:23:59;;;;;;;2.00;1.00;;;4.10;99.90;;;;;;5036541;28;20049;-73
2024/01/29 03:26:25;;;;;;;2.17;1.27;;;4.10;99.90;;;;;;5024921;28;20107;-73
2024/01/29 03:28:51;;;;;;;1.15;0.45;;;4.00;99.90;;;;;;5020106;28;20046;-73
2024/01/29 03:31:17;;;;;;;1.58;1.10;;;4.00;99.90;;;;;;5020957;28;20061;-74
2024/01/29 03:33:42;;;;;;;0.88;0.60;;;3.90;99.90;;;;;;5024853;28;20057;-73
2024/01/29 03:36:08;;;;;;;0.77;0.70;;;3.90;99.90;;;;;;5021200;28;20048;-73
2024/01/29 03:38:34;;;;;;;2.03;0.85;;;3.90;99.90;;;;;;5023569;28;20190;-73
2024/01/29 03:41:00;;;;;;;2.13;0.63;;;3.90;99.90;;;;;;5024468;28;20207;-73
2024/01/29 03:43:26;;;;;;;1.13;0.55;;;3.90;99.90;;;;;;5018496;28;20061;-72
2024/01/29 03:45:53;;;;;;;1.70;0.65;;;3.90;99.90;;;;;;5023994;28;20120;-72
2024/01/29 03:48:19;;;;;;;1.30;0.68;;;3.90;99.90;;;;;;5008502;28;20049;-73
2024/01/29 03:50:45;;;;;;;3.92;1.10;;;3.80;99.90;;;;;;5022562;28;20054;-72
2024/01/29 03:53:11;;;;;;;0.68;0.52;;;3.80;99.90;;;;;;5022439;28;20055;-72
2024/01/29 03:55:37;;;;;;;4.78;1.30;;;3.80;99.90;;;;;;5019708;28;20080;-72
2024/01/29 03:58:03;;;;;;;0.73;0.50;;;3.80;99.90;;;;;;5020514;28;20030;-73
2024/01/29 04:00:30;;;;;;;0.63;0.45;;;3.70;99.90;;;;;;5023031;28;20488;-72
2024/01/29 04:02:56;;;;;;;0.90;0.77;;;3.70;99.90;;;;;;5011953;28;20065;-73
2024/01/29 04:05:22;;;;;;;0.70;0.20;;;3.70;99.90;;;;;;4994474;28;20058;-72
2024/01/29 04:07:48;;;;;;;0.93;0.55;;;3.70;99.90;;;;;;5007301;28;20486;-72
2024/01/29 04:10:15;;;;;;;1.23;0.45;;;3.70;99.90;;;;;;5006439;28;20077;-72
2024/01/29 04:12:41;;;;;;;0.93;0.85;;;3.80;99.90;;;;;;5008520;28;20124;-73
2024/01/29 04:15:07;;;;;;;0.63;0.50;;;3.80;99.90;;;;;;4992704;28;20515;-73
2024/01/29 04:17:33;;;;;;;1.45;0.77;;;3.80;99.90;;;;;;5006274;28;20049;-73
2024/01/29 04:19:59;;;;;;;1.95;1.00;;;3.70;99.90;;;;;;5009169;28;20350;-73
2024/01/29 04:22:25;;;;;;;5.25;0.90;;;3.80;99.90;;;;;;5006628;28;20093;-74
2024/01/29 04:24:51;;;;;;;1.63;1.08;;;3.70;99.90;;;;;;5023884;28;20045;-73
2024/01/29 04:27:17;;;;;;;1.77;0.50;;;3.60;99.90;;;;;;5011403;28;20124;-73
2024/01/29 04:29:44;;;;;;;0.70;0.63;;;3.60;99.90;;;;;;4988826;28;20145;-73
2024/01/29 04:32:10;;;;;;;0.70;0.57;;;3.60;99.90;;;;;;4994726;28;20089;-73
2024/01/29 04:34:36;;;;;;;1.70;0.70;;;3.60;99.90;;;;;;5009079;28;20060;-73
2024/01/29 04:37:01;;;;;;;0.93;0.82;;;3.50;99.90;;;;;;5025025;28;20038;-73
2024/01/29 04:39:27;;;;;;;2.92;1.13;;;3.60;99.90;;;;;;4989495;28;20041;-73
2024/01/29 04:41:53;;;;;;;0.60;0.32;;;3.60;99.90;;;;;;5010283;28;20042;-73
2024/01/29 04:44:19;;;;;;;0.55;0.38;;;3.50;99.90;;;;;;5008360;28;20053;-73
2024/01/29 04:46:44;;;;;;;1.42;0.65;;;3.50;99.90;;;;;;4991763;28;20144;-74
2024/01/29 04:49:10;;;;;;;2.30;0.73;;;3.40;99.90;;;;;;5008031;28;20041;-73
2024/01/29 04:51:37;;;;;;;0.85;0.47;;;3.40;99.90;;;;;;5008475;28;20089;-73
2024/01/29 04:54:03;;;;;;;0.82;0.40;;;3.40;99.90;;;;;;5006000;28;20120;-73
2024/01/29 04:56:28;;;;;;;0.85;0.35;;;3.40;99.90;;;;;;5008814;28;20117;-73
2024/01/29 04:58:54;;;;;;;0.68;0.52;;;3.40;99.90;;;;;;5004564;28;20033;-73
2024/01/29 05:01:20;;;;;;;1.50;0.30;;;3.40;99.90;;;;;;5004236;28;20108;-73
2024/01/29 05:03:47;;;;;;;0.52;0.45;;;3.40;99.90;;;;;;5008060;28;20048;-73
2024/01/29 05:06:13;;;;;;;1.05;0.60;;;3.40;99.90;;;;;;4998001;28;20050;-73
2024/01/29 05:08:39;;;;;;;3.38;0.70;;;3.40;99.90;;;;;;4993907;28;20092;-73
2024/01/29 05:11:05;;;;;;;0.28;0.28;;;3.40;99.90;;;;;;5009201;28;20489;-73
2024/01/29 05:13:30;;;;;;;0.50;0.50;;;3.40;99.90;;;;;;4991424;28;20109;-73
2024/01/29 05:15:56;;;;;;;3.58;0.60;;;3.40;99.90;;;;;;4990001;28;20046;-73
2024/01/29 05:18:22;;;;;;;1.40;1.05;;;3.40;99.90;;;;;;5010116;28;20041;-73
2024/01/29 05:20:48;;;;;;;0.93;0.60;;;3.40;99.90;;;;;;5006815;28;20179;-73
2024/01/29 05:23:13;;;;;;;1.65;0.80;;;3.40;99.90;;;;;;5009320;28;20143;-73
2024/01/29 05:25:39;;;;;;;0.82;0.57;;;3.50;99.90;;;;;;4989703;28;20433;-72
2024/01/29 05:28:05;;;;;;;0.85;0.63;;;3.40;99.90;;;;;;5005593;28;20481;-73
2024/01/29 05:30:31;;;;;;;1.85;0.70;;;3.30;99.90;;;;;;5007232;28;20037;-73
2024/01/29 05:32:56;;;;;;;0.88;0.52;;;3.30;99.90;;;;;;5009200;28;20080;-73
2024/01/29 05:35:23;;;;;;;1.20;0.85;;;3.30;99.90;;;;;;5005765;28;20124;-73
2024/01/29 05:37:48;;;;;;;1.25;1.02;;;3.40;99.90;;;;;;5004532;28;20073;-72
2024/01/29 05:40:14;;;;;;;0.55;0.43;;;3.40;99.90;;;;;;5008041;28;20112;-74
2024/01/29 05:42:40;;;;;;;2.25;0.73;;;3.30;99.90;;;;;;5003177;28;20038;-73
2024/01/29 05:45:06;;;;;;;3.47;1.15;;;3.30;99.90;;;;;;5005287;28;20465;-73
2024/01/29 05:47:33;;;;;;;0.30;0.30;;;3.30;99.90;;;;;;5005872;28;20095;-73
2024/01/29 05:49:59;;;;;;;1.77;0.68;;;3.30;99.90;;;;;;5006069;28;20125;-73
2024/01/29 05:52:25;;;;;;;1.25;0.60;;;3.30;99.90;;;;;;5003259;28;20132;-73
2024/01/29 05:54:51;;;;;;;2.15;1.63;;;3.30;99.90;;;;;;5004536;28;20688;-73
2024/01/29 05:57:20;;;;;;;1.02;0.68;;;3.30;99.90;;;;;;5005892;28;20038;-73
2024/01/29 05:59:46;;;;;;;2.15;1.10;;;3.30;99.90;;;;;;5004445;28;20049;-73
2024/01/29 06:02:12;;;;;;;1.33;0.93;;;3.40;99.90;;;;;;5005305;28;20133;-73
2024/01/29 06:04:38;;;;;;;1.27;1.05;;;3.30;99.90;;;;;;5004216;28;20077;-73
2024/01/29 06:07:05;;;;;;;1.23;0.80;;;3.30;99.90;;;;;;5006943;28;20076;-72
2024/01/29 06:09:31;;;;;;;0.65;0.52;;;3.50;99.90;;;;;;5004990;28;20486;-73
2024/01/29 06:11:58;;;;;;;0.82;0.47;;;3.40;99.90;;;;;;5004656;28;20050;-73
2024/01/29 06:14:23;;;;;;;1.02;0.80;;;3.40;99.90;;;;;;5005444;28;20080;-73
2024/01/29 06:16:49;;;;;;;1.95;0.73;;;3.40;99.90;;;;;;5006894;28;20057;-73
2024/01/29 06:19:17;;;;;;;1.42;1.00;;;3.40;99.90;;;;;;5006780;28;20041;-73
2024/01/29 06:21:46;;;;;;;1.25;0.85;;;3.40;99.90;;;;;;5005149;28;20084;-73
2024/01/29 06:24:11;;;;;;;0.73;0.40;;;3.40;99.90;;;;;;5008197;28;20088;-73
2024/01/29 06:26:37;;;;;;;1.02;0.90;;;3.50;99.90;;;;;;5003574;28;20050;-73
2024/01/29 06:29:04;;;;;;;1.13;0.88;;;3.50;99.90;;;;;;5004987;28;20109;-73
2024/01/29 06:31:29;;;;;;;3.15;1.20;;;3.50;99.90;;;;;;4991266;28;20133;-73
2024/01/29 06:33:56;;;;;;;1.25;0.63;;;3.50;99.90;;;;;;5000552;28;20112;-73
2024/01/29 06:36:22;;;;;;;0.75;0.50;;;3.60;99.90;;;;;;5005015;28;20037;-73
2024/01/29 06:38:48;;;;;;;3.08;1.23;;;3.50;99.90;;;;;;4987014;28;20493;-73
2024/01/29 06:41:23;;;;;;;1.70;0.68;;;3.60;99.90;;;;;;5002902;28;20482;-72
2024/01/29 06:43:50;;;;;;;1.00;0.88;;;3.70;99.90;;;;;;5005623;28;20121;-72
2024/01/29 06:46:16;;;;;;;1.33;0.90;;;3.80;99.90;;;;;;5004696;28;20133;-72
2024/01/29 06:48:42;;;;;;;4.25;1.23;;;3.70;99.90;;;;;;4985691;28;20494;-72
2024/01/29 06:51:08;;;;;;;1.33;0.63;;;3.60;99.90;;;;;;5006926;28;20104;-72
2024/01/29 06:53:35;;;;;;;1.85;0.95;;;3.70;99.90;;;;;;5004879;28;20359;-72
2024/01/29 06:56:04;;;;;;;0.98;0.52;;;3.60;99.90;;;;;;5002370;28;20378;-73
2024/01/29 06:58:31;;;;;;;0.68;0.55;;;3.70;99.90;;;;;;5005136;28;20191;-72
2024/01/29 07:00:59;;;;;;;0.60;0.50;;;3.70;99.90;;;;;;5004444;28;20487;-73
2024/01/29 07:03:25;;;;;;;0.50;0.50;;;3.70;99.90;;;;;;5000311;28;20537;-73
2024/01/29 07:05:51;;;;;;;0.80;0.55;;;3.70;99.90;;;;;;5001693;28;20628;-72
2024/01/29 07:08:17;;;;;;;0.85;0.73;;;3.80;99.90;;;;;;5003467;28;20136;-72
2024/01/29 07:10:43;;;;;;;1.10;1.00;;;3.80;99.90;;;;;;5002291;28;20375;-73
2024/01/29 07:13:09;;;;;;;1.67;0.68;;;3.80;99.90;;;;;;5003460;28;20038;-73
2024/01/29 07:15:35;;;;;;;0.95;0.70;;;3.80;99.90;;;;;;5003489;28;20091;-73
2024/01/29 07:18:01;;;;;;;1.05;0.85;;;3.80;99.90;;;;;;5006050;28;20119;-73
2024/01/29 07:20:29;;;;;;;1.65;0.90;;;3.90;99.90;;;;;;5006066;28;20034;-73
2024/01/29 07:22:55;;;;;;;2.00;1.33;;;3.90;99.90;;;;;;5004505;28;20474;-73
2024/01/29 07:25:21;;;;;;;2.60;1.27;;;4.00;99.90;;;;;;5006188;28;20049;-73
2024/01/29 07:27:47;;;;;;;0.68;0.40;;;3.90;99.90;;;;;;5004523;28;20635;-73
2024/01/29 07:30:13;;;;;;;1.50;1.00;;;4.00;99.90;;;;;;5004225;28;20046;-73
2024/01/29 07:32:40;;;;;;;0.80;0.65;;;4.00;99.90;;;;;;5005904;28;20034;-73
2024/01/29 07:35:07;;;;;;;1.05;0.95;;;4.00;99.90;;;;;;4996518;28;20530;-73
2024/01/29 07:37:32;;;;;;;3.17;0.95;;;4.00;99.90;;;;;;5005401;28;20038;-74
2024/01/29 07:39:58;;;;;;;1.20;0.63;;;4.00;99.90;;;;;;4996534;28;20033;-73
2024/01/29 07:42:24;;;;;;;2.40;1.17;;;4.00;99.90;;;;;;5009623;28;20091;-73
2024/01/29 07:44:51;;;;;;;1.85;0.75;;;4.10;99.90;;;;;;4997162;28;20046;-74
2024/01/29 07:47:17;;;;;;;0.75;0.55;;;4.10;99.90;;;;;;4996365;28;20037;-73
2024/01/29 07:49:43;;;;;;;1.35;1.05;;;4.20;99.90;;;;;;5007111;28;20050;-72
2024/01/29 07:52:09;;;;;;;1.63;1.15;;;4.20;99.90;;;;;;5008981;28;20413;-72
2024/01/29 07:54:35;;;;;;;2.13;1.13;;;4.30;99.90;;;;;;5007264;28;20045;-72
2024/01/29 07:57:03;;;;;;;2.92;0.90;;;4.40;99.90;;;;;;5009888;28;20602;-74
2024/01/29 07:59:29;;;;;;;2.42;1.05;;;4.40;99.90;;;;;;5009514;28;20128;-73
2024/01/29 08:01:55;;;;;;;0.60;0.40;;;4.50;99.90;;;;;;5008693;28;20057;-73
2024/01/29 08:04:20;;;;;;;0.88;0.63;;;4.60;99.90;;;;;;5008747;28;20741;-72
2024/01/29 08:06:46;;;;;;;0.73;0.63;;;4.70;99.90;;;;;;5008717;28;20046;-73
2024/01/29 08:09:12;;;;;;;1.92;1.08;;;4.90;99.90;;;;;;5008163;28;20486;-72
2024/01/29 08:11:38;;;;;;;2.38;1.15;;;5.00;99.90;;;;;;5007513;28;20053;-72
2024/01/29 08:14:03;;;;;;;1.35;0.88;;;5.20;99.90;;;;;;5008926;28;20029;-72
2024/01/29 08:16:29;;;;;;;2.72;0.57;;;5.30;99.90;;;;;;4992246;28;20042;-72
2024/01/29 08:18:56;;;;;;;2.13;0.88;;;5.40;99.90;;;;;;5007842;28;20607;-72
2024/01/29 08:21:22;;;;;;;2.03;0.77;;;5.50;99.90;;;;;;5001990;28;20702;-72
2024/01/29 08:23:48;;;;;;;1.60;0.80;;;5.60;99.90;;;;;;4988994;28;20054;-73
2024/01/29 08:26:13;;;;;;;3.40;1.13;;;5.80;99.90;;;;;;4994992;28;20042;-73
2024/01/29 08:28:39;;;;;;;0.82;0.60;;;6.00;99.90;;;;;;5002217;28;20391;-72
2024/01/29 08:31:06;;;;;;;0.95;0.77;;;6.50;99.90;;;;;;5026923;28;20111;-73
2024/01/29 08:33:32;;;;;;;0.88;0.63;;;6.90;99.90;;;;;;5009526;28;20052;-73
2024/01/29 08:35:58;;;;;;;3.47;0.77;;;7.10;99.90;;;;;;5006899;28;20030;-72
2024/01/29 08:38:24;;;;;;;1.95;0.70;;;7.10;99.90;;;;;;5004353;28;20665;-73
2024/01/29 08:40:50;;;;;;;6.55;1.48;;;7.00;99.90;;;;;;5010058;28;20363;-73
2024/01/29 08:43:16;;;;;;;1.50;0.80;;;7.00;99.90;;;;;;5007375;28;20132;-73
2024/01/29 08:45:42;;;;;;;1.45;0.98;;;7.10;99.90;;;;;;5008395;28;20049;-73
2024/01/29 08:48:08;;;;;;;1.65;1.10;;;7.10;99.90;;;;;;5006159;28;20494;-73
2024/01/29 08:50:34;;;;;;;2.50;1.27;;;7.20;99.90;;;;;;4994629;28;20049;-74
2024/01/29 08:53:00;;;;;;;5.90;1.00;;;7.30;99.90;;;;;;5008254;28;20355;-74
2024/01/29 08:55:26;;;;;;;1.25;0.77;;;7.40;99.90;;;;;;5010244;28;20041;-74
2024/01/29 08:57:52;;;;;;;4.63;1.25;;;7.50;99.90;;;;;;5002324;28;20040;-74
2024/01/29 09:00:18;;;;;;;2.38;0.93;;;7.70;99.90;;;;;;5010859;28;20072;-74
2024/01/29 09:02:45;;;;;;;3.58;1.55;;;7.80;99.90;;;;;;5008400;28;20057;-73
2024/01/29 09:05:11;;;;;;;1.90;0.80;;;7.90;99.90;;;;;;4996551;28;20034;-74
2024/01/29 09:07:36;;;;;;;1.98;1.52;;;8.00;99.90;;;;;;5007593;28;20541;-73
2024/01/29 09:10:03;;;;;;;1.40;1.08;;;8.10;99.90;;;;;;5009850;28;20394;-73
2024/01/29 09:12:29;;;;;;;2.50;1.10;;;8.10;99.90;;;;;;4993770;28;20070;-74
2024/01/29 09:14:54;;;;;;;1.40;1.05;;;8.30;99.90;;;;;;5007849;28;20065;-74
2024/01/29 09:17:20;;;;;;;1.40;0.95;;;8.60;99.90;;;;;;5008753;28;20049;-73
2024/01/29 09:19:46;;;;;;;2.47;1.20;;;9.00;99.90;;;;;;5004282;28;20101;-74
2024/01/29 09:22:12;;;;;;;2.65;1.25;;;9.30;99.90;;;;;;5008125;28;20049;-74
2024/01/29 09:24:38;;;;;;;3.53;1.73;;;9.70;99.90;;;;;;4989041;28;20041;-73
2024/01/29 09:27:03;;;;;;;1.60;0.85;;;9.80;99.90;;;;;;5026692;28;20164;-73
2024/01/29 09:29:29;;;;;;;3.38;1.63;;;9.80;99.90;;;;;;5003354;28;20048;-73
2024/01/29 09:31:55;;;;;;;2.80;1.27;;;10.00;99.90;;;;;;5006893;28;20092;-73
2024/01/29 09:34:37;;;;;;;2.03;0.95;;;10.40;99.90;;;;;;5008172;28;20046;-74
2024/01/29 09:37:03;;;;;;;3.42;1.20;;;11.00;99.90;;;;;;5004831;28;20038;-74
2024/01/29 09:39:29;;;;;;;3.42;1.48;;;11.60;99.90;;;;;;5007705;28;20038;-74
2024/01/29 09:42:17;;;;;;;1.65;0.85;;;12.10;99.90;;;;;;4996743;28;20129;-74
2024/01/29 09:44:46;;;;;;;2.28;1.20;;;12.50;99.90;;;;;;5006559;28;20052;-73
2024/01/29 09:47:13;;;;;;;4.78;1.08;;;12.80;99.90;;;;;;5008361;28;20075;-73
2024/01/29 09:49:39;;;;;;;2.22;1.27;;;12.70;99.90;;;;;;5005806;28;20042;-74
2024/01/29 09:52:11;;;;;;;2.35;1.23;;;12.20;99.90;;;;;;5004683;28;21004;-73
2024/01/29 09:54:37;;;;;;;1.95;1.02;;;11.60;99.90;;;;;;5005710;28;20351;-73
2024/01/29 09:57:04;;;;;;;2.20;1.10;;;11.30;99.90;;;;;;5008259;28;20096;-73
2024/01/29 09:59:30;;;;;;;2.42;1.30;;;11.60;99.90;;;;;;5002346;28;20045;-74
2024/01/29 10:01:59;;;;;;;2.60;1.48;;;11.90;99.90;;;;;;5006607;28;20406;-74
2024/01/29 10:04:25;;;;;;;4.00;1.60;;;12.30;99.90;;;;;;4990277;28;20038;-74
2024/01/29 10:06:51;;;;;;;2.20;1.35;;;12.80;99.90;;;;;;5004229;28;20045;-74
2024/01/29 10:09:17;;;;;;;4.85;1.50;;;13.20;99.90;;;;;;5007445;28;20048;-75
2024/01/29 10:11:43;;;;;;;3.10;1.42;;;13.40;99.90;;;;;;5006066;28;20124;-76
2024/01/29 10:14:09;;;;;;;2.38;1.40;;;13.60;99.90;;;;;;5006877;28;20041;-75
2024/01/29 10:16:35;;;;;;;2.72;1.60;;;13.60;99.90;;;;;;4993244;28;20045;-75
2024/01/29 10:19:02;;;;;;;2.35;1.50;;;13.40;99.90;;;;;;5007467;28;20054;-75
2024/01/29 10:21:36;;;;;;;1.98;1.30;;;13.00;99.90;;;;;;4993704;28;20107;-75
2024/01/29 10:24:02;;;;;;;1.98;1.20;;;12.80;99.90;;;;;;4989865;28;20125;-75
2024/01/29 10:26:28;;;;;;;4.32;1.50;;;12.90;99.90;;;;;;4991789;28;20122;-75
2024/01/29 10:29:01;;;;;;;3.72;1.33;;;13.10;99.90;;;;;;5005265;28;20045;-75
2024/01/29 10:31:27;;;;;;;3.13;1.65;;;13.30;99.90;;;;;;5005894;28;20056;-75
2024/01/29 10:33:53;;;;;;;3.50;1.38;;;13.20;99.90;;;;;;5007399;28;20038;-76
2024/01/29 10:36:19;;;;;;;2.65;1.40;;;12.80;99.90;;;;;;5004529;28;20038;-75
2024/01/29 10:38:46;;;;;;;3.90;1.75;;;12.30;99.90;;;;;;5007278;28;20500;-75
2024/01/29 10:41:28;;;;;;;4.13;1.67;;;11.80;99.90;;;;;;5007616;28;21277;-76
2024/01/29 10:43:55;;;;;;;3.40;1.33;;;11.30;99.90;;;;;;5003577;28;20037;-75
2024/01/29 10:46:22;;;;;;;2.65;1.42;;;11.00;99.90;;;;;;5023676;28;20116;-75
2024/01/29 10:48:49;;;;;;;2.53;1.48;;;10.70;99.90;;;;;;5007815;28;20474;-75
2024/01/29 10:51:16;;;;;;;3.33;1.55;;;10.50;99.90;;;;;;5000236;28;20435;-75
2024/01/29 10:53:44;;;;;;;1.42;1.10;;;10.30;99.90;;;;;;5003458;28;20342;-75
2024/01/29 10:56:11;;;;;;;2.30;1.45;;;10.10;99.90;;;;;;5000618;28;20042;-75
2024/01/29 10:58:38;;;;;;;2.13;1.52;;;9.90;99.90;;;;;;5002177;28;20042;-75
2024/01/29 11:01:09;;;;;;;3.15;1.77;;;9.80;99.90;;;;;;5001288;28;20072;-75
2024/01/29 11:03:36;;;;;;;2.60;1.73;;;9.70;99.90;;;;;;5001582;28;20076;-75
2024/01/29 11:06:20;;;;;;;1.48;1.15;;;9.60;99.90;;;;;;5004109;28;20046;-74
2024/01/29 11:08:52;;;;;;;3.83;1.35;;;9.60;99.90;;;;;;5007294;28;20743;-75
2024/01/29 11:11:18;;;;;;;3.47;1.83;;;9.70;99.90;;;;;;5004218;28;20097;-75
2024/01/29 11:13:44;;;;;;;2.67;1.27;;;9.60;99.90;;;;;;5004515;28;20046;-74
2024/01/29 11:16:10;;;;;;;3.53;2.22;;;9.60;99.90;;;;;;5008146;28;20046;-74
2024/01/29 11:18:36;;;;;;;4.30;2.13;;;9.60;99.90;;;;;;4995369;28;20665;-75
2024/01/29 11:21:02;;;;;;;4.25;2.33;;;9.60;99.90;;;;;;5008767;28;20041;-75
2024/01/29 11:23:28;;;;;;;2.80;1.55;;;9.60;99.90;;;;;;5007864;28;20060;-75
2024/01/29 11:26:03;;;;;;;4.85;1.92;;;9.70;99.90;;;;;;4990966;28;20050;-75
2024/01/29 11:28:29;;;;;;;2.67;1.52;;;9.80;99.90;;;;;;5009608;28;20048;-75
2024/01/29 11:31:12;;;;;;;2.03;1.63;;;9.80;99.90;;;;;;5007844;28;20072;-75
2024/01/29 11:33:38;;;;;;;2.67;1.23;;;9.90;99.90;;;;;;5007320;28;20034;-75
2024/01/29 11:36:13;;;;;;;3.33;1.83;;;10.10;99.90;;;;;;5004011;28;20038;-75
2024/01/29 11:38:39;;;;;;;1.75;1.48;;;10.20;99.90;;;;;;5001782;28;20095;-74
2024/01/29 11:41:05;;;;;;;2.63;1.83;;;10.20;99.90;;;;;;5008203;28;20042;-74
2024/01/29 11:43:34;;;;;;;6.07;2.20;;;10.20;99.90;;;;;;5002750;28;20050;-74
2024/01/29 11:46:00;;;;;;;3.03;2.15;;;10.20;99.90;;;;;;5007176;28;20425;-75
2024/01/29 11:48:26;;;;;;;4.30;2.30;;;10.20;99.90;;;;;;5004338;28;20049;-75
2024/01/29 11:50:53;;;;;;;4.50;2.08;;;10.10;99.90;;;;;;5006653;28;20125;-75
2024/01/29 11:53:21;;;;;;;5.38;2.45;;;10.10;99.90;;;;;;5005986;28;20529;-75
2024/01/29 11:55:48;;;;;;;2.88;1.67;;;10.00;99.90;;;;;;5006939;28;20038;-75
2024/01/29 11:58:18;;;;;;;2.60;2.00;;;10.00;99.90;;;;;;4987770;28;20395;-74
2024/01/29 12:00:46;;;;;;;3.50;1.90;;;10.00;99.90;;;;;;5005357;28;20562;-74
2024/01/29 12:03:14;;;;;;;1.98;1.67;;;10.00;99.90;;;;;;5005465;28;20042;-75
2024/01/29 12:05:40;;;;;;;2.65;1.70;;;9.90;99.90;;;;;;5004155;28;20041;-74
2024/01/29 12:08:17;;;;;;;3.85;2.45;;;9.90;99.90;;;;;;5008223;28;20404;-74
2024/01/29 12:10:44;;;;;;;5.95;1.90;;;9.90;99.90;;;;;;4999042;28;20513;-74
2024/01/29 12:13:20;;;;;;;2.83;1.48;;;9.90;99.90;;;;;;5008667;28;20048;-74
2024/01/29 12:15:49;;;;;;;3.80;2.45;;;9.90;99.90;;;;;;5003485;28;20038;-74
2024/01/29 12:18:18;;;;;;;3.55;2.20;;;9.90;99.90;;;;;;5011064;28;20410;-74
2024/01/29 12:20:44;;;;;;;2.92;1.55;;;9.90;99.90;;;;;;5005758;28;20566;-75
2024/01/29 12:23:13;;;;;;;4.10;1.92;;;9.80;99.90;;;;;;5008113;28;20040;-74
2024/01/29 12:25:39;;;;;;;6.25;2.30;;;9.90;99.90;;;;;;4999987;28;20047;-75
2024/01/29 12:28:09;;;;;;;2.45;1.63;;;9.90;99.90;;;;;;4987038;28;20398;-75
2024/01/29 12:30:35;;;;;;;4.57;3.05;;;9.90;99.90;;;;;;5018795;28;20044;-75
2024/01/29 12:33:02;;;;;;;4.97;2.38;;;9.90;99.90;;;;;;5003467;28;20046;-75
2024/01/29 12:35:30;;;;;;;4.18;1.98;;;9.80;99.90;;;;;;4997676;28;20121;-75
2024/01/29 12:38:06;;;;;;;5.28;2.05;;;9.80;99.90;;;;;;5002072;28;20042;-75
2024/01/29 12:40:33;;;;;;;2.38;1.67;;;9.80;99.90;;;;;;5001528;28;20042;-75
2024/01/29 12:43:00;;;;;;;4.22;2.17;;;9.90;99.90;;;;;;4987612;28;20031;-75
2024/01/29 12:45:26;;;;;;;3.80;1.92;;;9.80;99.90;;;;;;4986463;28;20050;-75
2024/01/29 12:48:02;;;;;;;2.80;1.80;;;9.90;99.90;;;;;;5005582;28;20089;-75
2024/01/29 12:50:28;;;;;;;5.35;1.95;;;9.90;99.90;;;;;;4998222;28;20093;-75
2024/01/29 12:52:53;;;;;;;5.45;2.33;;;9.80;99.90;;;;;;4995680;28;20046;-75